Time;durP1;ratioP1;P1;durP2;ratioP2;P2;SDS_P1;SDS_P2;PMS_P1;PMS_P2;Temp;Humidity;BMP_temperature;BMP_pressure;BME280_temperature;BME280_humidity;BME280_pressure;Samples;Min_cycle;Max_cycle;Signal;HPM_P1;HPM_P2
2022/10/21 00:01:28;;;;;;;;;;;;;;;;;;5033454;28;19910;-64
2022/10/21 00:03:54;;;;;;;;;;;;;;;;;;5032347;28;19917;-65
2022/10/21 00:06:20;;;;;;;;;;;;;;;;;;5033094;28;20393;-65
2022/10/21 00:08:46;;;;;;;;;;;;;;;;;;5026425;28;20011;-63
2022/10/21 00:11:12;;;;;;;;;;;;;;;;;;5032318;28;19909;-64
2022/10/21 00:13:38;;;;;;;;;;;;;;;;;;5033474;28;19909;-65
2022/10/21 00:16:04;;;;;;;;;;;;;;;;;;5032797;28;19909;-64
2022/10/21 00:18:30;;;;;;;;;;;;;;;;;;5032826;28;19914;-65
2022/10/21 00:20:56;;;;;;;;;;;;;;;;;;5032500;28;19917;-64
2022/10/21 00:23:22;;;;;;;;;;;;;;;;;;5032360;28;19920;-65
2022/10/21 00:25:47;;;;;;;;;;;;;;;;;;5032696;28;19913;-64
2022/10/21 00:28:13;;;;;;;;;;;;;;;;;;5032724;28;19922;-65
2022/10/21 00:30:39;;;;;;;;;;;;;;;;;;5032405;28;19918;-65
2022/10/21 00:33:05;;;;;;;;;;;;;;;;;;5032391;28;20289;-64
2022/10/21 00:35:31;;;;;;;;;;;;;;;;;;5032429;28;19920;-64
2022/10/21 00:37:57;;;;;;;;;;;;;;;;;;5032084;28;20448;-64
2022/10/21 00:40:23;;;;;;;;;;;;;;;;;;5032164;28;19909;-64
2022/10/21 00:42:48;;;;;;;;;;;;;;;;;;5032221;28;19969;-63
2022/10/21 00:45:14;;;;;;;;;;;;;;;;;;5032176;28;19916;-65
2022/10/21 00:47:40;;;;;;;;;;;;;;;;;;5031965;28;19921;-65
2022/10/21 00:50:06;;;;;;;;;;;;;;;;;;5031996;28;20014;-65
2022/10/21 00:52:32;;;;;;;;;;;;;;;;;;5031864;28;19909;-65
2022/10/21 00:54:58;;;;;;;;;;;;;;;;;;5032112;28;20001;-63
2022/10/21 00:57:24;;;;;;;;;;;;;;;;;;5032132;28;19909;-63
2022/10/21 00:59:50;;;;;;;;;;;;;;;;;;5025300;28;19914;-64
2022/10/21 01:02:16;;;;;;;;;;;;;;;;;;5031639;28;20396;-64
2022/10/21 01:04:42;;;;;;;;;;;;;;;;;;5031903;28;19913;-65
2022/10/21 01:07:07;;;;;;;;;;;;;;;;;;5031431;28;20008;-65
2022/10/21 01:09:33;;;;;;;;;;;;;;;;;;5031244;28;19925;-65
2022/10/21 01:11:59;;;;;;;;;;;;;;;;;;5029977;28;20432;-64
2022/10/21 01:14:25;;;;;;;;;;;;;;;;;;5031495;28;19941;-66
2022/10/21 01:16:51;;;;;;;;;;;;;;;;;;5031499;28;19992;-65
2022/10/21 01:19:17;;;;;;;;;;;;;;;;;;5031795;28;19916;-65
2022/10/21 01:21:43;;;;;;;;;;;;;;;;;;5031714;28;20290;-64
2022/10/21 01:24:09;;;;;;;;;;;;;;;;;;5030144;28;19988;-65
2022/10/21 01:26:34;;;;;;;;;;;;;;;;;;5031278;28;19909;-64
2022/10/21 01:29:00;;;;;;;;;;;;;;;;;;5031431;28;19963;-66
2022/10/21 01:31:26;;;;;;;;;;;;;;;;;;5031472;28;19917;-65
2022/10/21 01:33:52;;;;;;;;;;;;;;;;;;5031670;28;19913;-66
2022/10/21 01:36:18;;;;;;;;;;;;;;;;;;5030889;28;19983;-65
2022/10/21 01:38:44;;;;;;;;;;;;;;;;;;5031100;28;19916;-63
2022/10/21 01:41:10;;;;;;;;;;;;;;;;;;5031128;28;19913;-65
2022/10/21 01:43:36;;;;;;;;;;;;;;;;;;5031056;28;19913;-65
2022/10/21 01:46:02;;;;;;;;;;;;;;;;;;5031061;28;20295;-64
2022/10/21 01:48:27;;;;;;;;;;;;;;;;;;5031385;28;20006;-64
2022/10/21 01:50:53;;;;;;;;;;;;;;;;;;5030664;28;20306;-63
2022/10/21 01:53:19;;;;;;;;;;;;;;;;;;5031667;28;19916;-64
2022/10/21 01:55:45;;;;;;;;;;;;;;;;;;5031171;28;19916;-61
2022/10/21 01:58:11;;;;;;;;;;;;;;;;;;5030830;28;19951;-65
2022/10/21 02:00:37;;;;;;;;;;;;;;;;;;5030858;28;19917;-63
2022/10/21 02:03:03;;;;;;;;;;;;;;;;;;5031064;28;19917;-65
2022/10/21 02:05:29;;;;;;;;;;;;;;;;;;5030840;28;19959;-64
2022/10/21 02:07:55;;;;;;;;;;;;;;;;;;5031359;28;19910;-65
2022/10/21 02:10:20;;;;;;;;;;;;;;;;;;5030823;28;20378;-65
2022/10/21 02:12:46;;;;;;;;;;;;;;;;;;5030965;28;19913;-62
2022/10/21 02:15:12;;;;;;;;;;;;;;;;;;5031099;28;20374;-64
2022/10/21 02:17:38;;;;;;;;;;;;;;;;;;5031183;28;19909;-64
2022/10/21 02:20:04;;;;;;;;;;;;;;;;;;5023793;28;20016;-64
2022/10/21 02:22:30;;;;;;;;;;;;;;;;;;5033600;28;19916;-64
2022/10/21 02:24:56;;;;;;;;;;;;;;;;;;5035233;28;19917;-65
2022/10/21 02:27:22;;;;;;;;;;;;;;;;;;5034569;28;19996;-64
2022/10/21 02:29:47;;;;;;;;;;;;;;;;;;5034860;28;19917;-64
2022/10/21 02:32:13;;;;;;;;;;;;;;;;;;5034500;28;20368;-66
2022/10/21 02:34:40;;;;;;;;;;;;;;;;;;5034336;28;19913;-64
2022/10/21 02:37:06;;;;;;;;;;;;;;;;;;5035189;28;19909;-65
2022/10/21 02:39:32;;;;;;;;;;;;;;;;;;5033276;28;19913;-66
2022/10/21 02:41:58;;;;;;;;;;;;;;;;;;5034337;28;19992;-65
2022/10/21 02:44:24;;;;;;;;;;;;;;;;;;5032845;28;19913;-63
2022/10/21 02:46:50;;;;;;;;;;;;;;;;;;5034577;28;19996;-64
2022/10/21 02:49:16;;;;;;;;;;;;;;;;;;5033655;28;19925;-63
2022/10/21 02:51:42;;;;;;;;;;;;;;;;;;5034648;28;19909;-64
2022/10/21 02:54:07;;;;;;;;;;;;;;;;;;5034582;28;20340;-64
2022/10/21 02:56:34;;;;;;;;;;;;;;;;;;5034394;28;19909;-65
2022/10/21 02:59:00;;;;;;;;;;;;;;;;;;5034008;28;19909;-65
2022/10/21 03:01:26;;;;;;;;;;;;;;;;;;5033932;28;19963;-63
2022/10/21 03:03:51;;;;;;;;;;;;;;;;;;5034386;28;19909;-65
2022/10/21 03:06:17;;;;;;;;;;;;;;;;;;5034412;28;20366;-65
2022/10/21 03:08:43;;;;;;;;;;;;;;;;;;5033774;28;19913;-65
2022/10/21 03:11:09;;;;;;;;;;;;;;;;;;5033962;28;20378;-65
2022/10/21 03:13:35;;;;;;;;;;;;;;;;;;5034525;28;20121;-66
2022/10/21 03:16:01;;;;;;;;;;;;;;;;;;5027397;28;19916;-65
2022/10/21 03:18:27;;;;;;;;;;;;;;;;;;5033551;28;20274;-64
2022/10/21 03:20:53;;;;;;;;;;;;;;;;;;5032703;28;19909;-65
2022/10/21 03:23:19;;;;;;;;;;;;;;;;;;5033952;28;19982;-65
2022/10/21 03:25:44;;;;;;;;;;;;;;;;;;5034280;28;19909;-66
2022/10/21 03:28:10;;;;;;;;;;;;;;;;;;5033546;28;19947;-65
2022/10/21 03:30:36;;;;;;;;;;;;;;;;;;5033722;28;19944;-65
2022/10/21 03:33:02;;;;;;;;;;;;;;;;;;5032915;28;20393;-64
2022/10/21 03:35:28;;;;;;;;;;;;;;;;;;5033353;28;19963;-65
2022/10/21 03:37:54;;;;;;;;;;;;;;;;;;5033353;28;19956;-63
2022/10/21 03:40:22;;;;;;;;;;;;;;;;;;5033393;28;19909;-66
2022/10/21 03:42:48;;;;;;;;;;;;;;;;;;5033446;28;19966;-65
2022/10/21 03:45:14;;;;;;;;;;;;;;;;;;5033382;28;20358;-64
2022/10/21 03:47:40;;;;;;;;;;;;;;;;;;5032895;28;19917;-65
2022/10/21 03:50:06;;;;;;;;;;;;;;;;;;5033513;28;20277;-64
2022/10/21 03:52:32;;;;;;;;;;;;;;;;;;5026567;28;19975;-65
2022/10/21 03:54:57;;;;;;;;;;;;;;;;;;5033616;28;19913;-63
2022/10/21 03:57:23;;;;;;;;;;;;;;;;;;5033083;28;20438;-63
2022/10/21 03:59:49;;;;;;;;;;;;;;;;;;5033382;28;19971;-65
2022/10/21 04:02:15;;;;;;;;;;;;;;;;;;5032888;28;20488;-65
2022/10/21 04:04:41;;;;;;;;;;;;;;;;;;5033175;28;19992;-65
2022/10/21 04:07:07;;;;;;;;;;;;;;;;;;5033346;28;19909;-65
2022/10/21 04:09:33;;;;;;;;;;;;;;;;;;5033053;28;19917;-65
2022/10/21 04:11:58;;;;;;;;;;;;;;;;;;5032745;28;19995;-65
2022/10/21 04:14:24;;;;;;;;;;;;;;;;;;5032655;28;19979;-64
2022/10/21 04:16:50;;;;;;;;;;;;;;;;;;5032439;28;19920;-64
2022/10/21 04:19:16;;;;;;;;;;;;;;;;;;5026333;28;20004;-64
2022/10/21 04:21:42;;;;;;;;;;;;;;;;;;5032710;28;19932;-65
2022/10/21 04:24:08;;;;;;;;;;;;;;;;;;5033268;28;20298;-64
2022/10/21 04:26:34;;;;;;;;;;;;;;;;;;5032497;28;20008;-63
2022/10/21 04:29:00;;;;;;;;;;;;;;;;;;5032839;28;19925;-63
2022/10/21 04:31:26;;;;;;;;;;;;;;;;;;5032052;28;19917;-65
2022/10/21 04:33:52;;;;;;;;;;;;;;;;;;5032755;28;19913;-64
2022/10/21 04:36:18;;;;;;;;;;;;;;;;;;5032688;28;19910;-65
2022/10/21 04:38:44;;;;;;;;;;;;;;;;;;5032297;28;19913;-63
2022/10/21 04:41:09;;;;;;;;;;;;;;;;;;5032226;28;19931;-65
2022/10/21 04:43:35;;;;;;;;;;;;;;;;;;5032248;28;19909;-64
2022/10/21 04:46:01;;;;;;;;;;;;;;;;;;5032373;28;19909;-66
2022/10/21 04:48:27;;;;;;;;;;;;;;;;;;5031910;28;20004;-64
2022/10/21 04:50:53;;;;;;;;;;;;;;;;;;5031788;28;19961;-66
2022/10/21 04:53:19;;;;;;;;;;;;;;;;;;5031880;28;19936;-64
2022/10/21 04:55:45;;;;;;;;;;;;;;;;;;5032233;28;19909;-64
2022/10/21 04:58:11;;;;;;;;;;;;;;;;;;5031699;28;20442;-62
2022/10/21 05:00:36;;;;;;;;;;;;;;;;;;5031823;28;19967;-64
2022/10/21 05:03:02;;;;;;;;;;;;;;;;;;5031937;28;19909;-65
2022/10/21 05:05:28;;;;;;;;;;;;;;;;;;5031765;28;19996;-64
2022/10/21 05:07:54;;;;;;;;;;;;;;;;;;5031543;28;19909;-63
2022/10/21 05:10:21;;;;;;;;;;;;;;;;;;5031169;28;19917;-65
2022/10/21 05:12:47;;;;;;;;;;;;;;;;;;5031305;28;19909;-62
2022/10/21 05:15:13;;;;;;;;;;;;;;;;;;5030935;28;20001;-65
2022/10/21 05:17:39;;;;;;;;;;;;;;;;;;5031027;28;20427;-62
2022/10/21 05:20:05;;;;;;;;;;;;;;;;;;5029861;28;20003;-63
2022/10/21 05:22:31;;;;;;;;;;;;;;;;;;5025489;28;19909;-65
2022/10/21 05:24:57;;;;;;;;;;;;;;;;;;5031208;28;20393;-63
2022/10/21 05:27:23;;;;;;;;;;;;;;;;;;5031050;28;19909;-63
2022/10/21 05:29:49;;;;;;;;;;;;;;;;;;5030777;28;20432;-65
2022/10/21 05:32:15;;;;;;;;;;;;;;;;;;5031325;28;20023;-64
2022/10/21 05:34:41;;;;;;;;;;;;;;;;;;5030894;28;20488;-64
2022/10/21 05:37:06;;;;;;;;;;;;;;;;;;5031371;28;19945;-64
2022/10/21 05:39:32;;;;;;;;;;;;;;;;;;5030553;28;19913;-65
2022/10/21 05:41:58;;;;;;;;;;;;;;;;;;5030890;28;19964;-65
2022/10/21 05:44:24;;;;;;;;;;;;;;;;;;5030895;28;19960;-65
2022/10/21 05:46:50;;;;;;;;;;;;;;;;;;5030419;28;20337;-65
2022/10/21 05:49:16;;;;;;;;;;;;;;;;;;5029928;28;20341;-58
2022/10/21 05:51:43;;;;;;;;;;;;;;;;;;5023821;28;19909;-76
2022/10/21 05:54:09;;;;;;;;;;;;;;;;;;5031010;28;20163;-78
2022/10/21 05:56:35;;;;;;;;;;;;;;;;;;5035571;28;20388;-75
2022/10/21 05:59:01;;;;;;;;;;;;;;;;;;5030891;28;19917;-82
2022/10/21 06:01:27;;;;;;;;;;;;;;;;;;5030759;28;19910;-76
2022/10/21 06:03:53;;;;;;;;;;;;;;;;;;5030793;28;20456;-83
2022/10/21 06:06:18;;;;;;;;;;;;;;;;;;5030608;28;20003;-75
2022/10/21 06:08:44;;;;;;;;;;;;;;;;;;5030896;28;20416;-73
2022/10/21 06:11:10;;;;;;;;;;;;;;;;;;5031196;28;19920;-73
2022/10/21 06:13:36;;;;;;;;;;;;;;;;;;5030337;28;20325;-72
2022/10/21 06:16:02;;;;;;;;;;;;;;;;;;5030948;28;19916;-66
2022/10/21 06:18:28;;;;;;;;;;;;;;;;;;5030911;28;19963;-65
2022/10/21 06:20:54;;;;;;;;;;;;;;;;;;5030546;28;20357;-65
2022/10/21 06:23:20;;;;;;;;;;;;;;;;;;5031605;28;19909;-66
2022/10/21 06:25:45;;;;;;;;;;;;;;;;;;5030578;28;20400;-65
2022/10/21 06:28:11;;;;;;;;;;;;;;;;;;5030208;28;19929;-66
2022/10/21 06:30:37;;;;;;;;;;;;;;;;;;5029978;28;19925;-64
2022/10/21 06:33:03;;;;;;;;;;;;;;;;;;5030378;28;19913;-63
2022/10/21 06:35:29;;;;;;;;;;;;;;;;;;5030119;28;20285;-64
2022/10/21 06:37:55;;;;;;;;;;;;;;;;;;5030332;28;19959;-63
2022/10/21 06:40:21;;;;;;;;;;;;;;;;;;5029820;28;20400;-64
2022/10/21 06:42:47;;;;;;;;;;;;;;;;;;5030130;28;19955;-65
2022/10/21 06:45:12;;;;;;;;;;;;;;;;;;5030080;28;19920;-64
2022/10/21 06:47:38;;;;;;;;;;;;;;;;;;5030354;28;19924;-64
2022/10/21 06:50:04;;;;;;;;;;;;;;;;;;5029844;28;20743;-64
2022/10/21 06:52:30;;;;;;;;;;;;;;;;;;5024856;28;19913;-63
2022/10/21 06:54:56;;;;;;;;;;;;;;;;;;5030599;28;19909;-63
2022/10/21 06:57:22;;;;;;;;;;;;;;;;;;5030459;28;19913;-65
2022/10/21 06:59:48;;;;;;;;;;;;;;;;;;5030915;28;20436;-65
2022/10/21 07:02:14;;;;;;;;;;;;;;;;;;5029007;28;19913;-65
2022/10/21 07:04:43;;;;;;;;;;;;;;;;;;5030281;28;19909;-65
2022/10/21 07:07:09;;;;;;;;;;;;;;;;;;5030503;28;20286;-65
2022/10/21 07:09:35;;;;;;;;;;;;;;;;;;5032381;28;19928;-65
2022/10/21 07:12:01;;;;;;;;;;;;;;;;;;5033931;28;19952;-65
2022/10/21 07:14:27;;;;;;;;;;;;;;;;;;5034021;28;20384;-65
2022/10/21 07:16:53;;;;;;;;;;;;;;;;;;5033795;28;19909;-64
2022/10/21 07:19:19;;;;;;;;;;;;;;;;;;5034454;28;20377;-64
2022/10/21 07:21:45;;;;;;;;;;;;;;;;;;5033820;28;20240;-65
2022/10/21 07:24:11;;;;;;;;;;;;;;;;;;5033239;28;19917;-66
2022/10/21 07:26:36;;;;;;;;;;;;;;;;;;5033663;28;19917;-65
2022/10/21 07:29:02;;;;;;;;;;;;;;;;;;5034362;28;19917;-63
2022/10/21 07:31:28;;;;;;;;;;;;;;;;;;5033739;28;20382;-65
2022/10/21 07:33:54;;;;;;;;;;;;;;;;;;5033821;28;19916;-65
2022/10/21 07:36:20;;;;;;;;;;;;;;;;;;5033524;28;19914;-65
2022/10/21 07:38:46;;;;;;;;;;;;;;;;;;5033043;28;19931;-64
2022/10/21 07:41:12;;;;;;;;;;;;;;;;;;5033746;28;20374;-65
2022/10/21 07:43:38;;;;;;;;;;;;;;;;;;5033642;28;19920;-65
2022/10/21 07:46:04;;;;;;;;;;;;;;;;;;5033790;28;19916;-66
2022/10/21 07:48:30;;;;;;;;;;;;;;;;;;5032730;28;19929;-64
2022/10/21 07:50:56;;;;;;;;;;;;;;;;;;5033096;28;20392;-65
2022/10/21 07:53:25;;;;;;;;;;;;;;;;;;5033501;28;20000;-65
2022/10/21 07:55:51;;;;;;;;;;;;;;;;;;5033132;28;19917;-65
2022/10/21 07:58:16;;;;;;;;;;;;;;;;;;5033270;28;19920;-65
2022/10/21 08:00:42;;;;;;;;;;;;;;;;;;5033488;28;19958;-66
2022/10/21 08:03:11;;;;;;;;;;;;;;;;;;5033156;28;20437;-65
2022/10/21 08:05:37;;;;;;;;;;;;;;;;;;5032938;28;19910;-66
2022/10/21 08:08:03;;;;;;;;;;;;;;;;;;5032426;28;19963;-65
2022/10/21 08:10:29;;;;;;;;;;;;;;;;;;5033026;28;20008;-65
2022/10/21 08:12:55;;;;;;;;;;;;;;;;;;5032641;28;19928;-64
2022/10/21 08:15:20;;;;;;;;;;;;;;;;;;5032612;28;19913;-65
2022/10/21 08:17:46;;;;;;;;;;;;;;;;;;5032469;28;19937;-65
2022/10/21 08:20:12;;;;;;;;;;;;;;;;;;5032043;28;19971;-65
2022/10/21 08:22:38;;;;;;;;;;;;;;;;;;5032394;28;20267;-65
2022/10/21 08:25:04;;;;;;;;;;;;;;;;;;5032772;28;19910;-64
2022/10/21 08:27:30;;;;;;;;;;;;;;;;;;5031328;28;20381;-65
2022/10/21 08:29:56;;;;;;;;;;;;;;;;;;5032597;28;19953;-63
2022/10/21 08:32:22;;;;;;;;;;;;;;;;;;5032711;28;20392;-65
2022/10/21 08:34:47;;;;;;;;;;;;;;;;;;5032870;28;19917;-65
2022/10/21 08:37:13;;;;;;;;;;;;;;;;;;5031576;28;19944;-65
2022/10/21 08:39:39;;;;;;;;;;;;;;;;;;5032211;28;19916;-64
2022/10/21 08:42:05;;;;;;;;;;;;;;;;;;5032505;28;19909;-65
2022/10/21 08:44:31;;;;;;;;;;;;;;;;;;5032229;28;19909;-66
2022/10/21 08:46:57;;;;;;;;;;;;;;;;;;5032128;28;19917;-65
2022/10/21 08:49:23;;;;;;;;;;;;;;;;;;5032062;28;19921;-66
2022/10/21 08:51:49;;;;;;;;;;;;;;;;;;5031909;28;20401;-65
2022/10/21 08:54:15;;;;;;;;;;;;;;;;;;5032090;28;19963;-65
2022/10/21 08:56:41;;;;;;;;;;;;;;;;;;5032298;28;19916;-66
2022/10/21 08:59:07;;;;;;;;;;;;;;;;;;5032028;28;19910;-66
2022/10/21 09:01:32;;;;;;;;;;;;;;;;;;5030289;28;19913;-64
2022/10/21 09:03:58;;;;;;;;;;;;;;;;;;5030639;28;19951;-65
2022/10/21 09:06:24;;;;;;;;;;;;;;;;;;5031746;28;19917;-65
2022/10/21 09:08:51;;;;;;;;;;;;;;;;;;5031360;28;19913;-65
2022/10/21 09:11:18;;;;;;;;;;;;;;;;;;5028495;28;20313;-65
2022/10/21 09:13:47;;;;;;;;;;;;;;;;;;5030332;28;19909;-64
2022/10/21 09:16:13;;;;;;;;;;;;;;;;;;5032411;28;19913;-66
2022/10/21 09:18:39;;;;;;;;;;;;;;;;;;5031686;28;19909;-66
2022/10/21 09:21:05;;;;;;;;;;;;;;;;;;5032166;28;19932;-66
2022/10/21 09:23:30;;;;;;;;;;;;;;;;;;5031482;28;19948;-63
2022/10/21 09:25:56;;;;;;;;;;;;;;;;;;5031592;28;20356;-66
2022/10/21 09:28:22;;;;;;;;;;;;;;;;;;5032162;28;19909;-65
2022/10/21 09:30:48;;;;;;;;;;;;;;;;;;5030368;28;19921;-66
2022/10/21 09:33:14;;;;;;;;;;;;;;;;;;5031557;28;19909;-65
2022/10/21 09:35:40;;;;;;;;;;;;;;;;;;5031148;28;19909;-65
2022/10/21 09:38:06;;;;;;;;;;;;;;;;;;5032013;28;19948;-66
2022/10/21 09:40:32;;;;;;;;;;;;;;;;;;5031179;28;20401;-66
2022/10/21 09:43:00;;;;;;;;;;;;;;;;;;5031795;28;19910;-65
2022/10/21 09:45:26;;;;;;;;;;;;;;;;;;5031292;28;19916;-65
2022/10/21 09:47:52;;;;;;;;;;;;;;;;;;5030822;28;19928;-65
2022/10/21 09:50:19;;;;;;;;;;;;;;;;;;5029098;28;21348;-65
2022/10/21 09:52:45;;;;;;;;;;;;;;;;;;5031101;28;19913;-64
2022/10/21 09:55:11;;;;;;;;;;;;;;;;;;5031252;28;19914;-65
2022/10/21 09:57:37;;;;;;;;;;;;;;;;;;5031346;28;19932;-66
2022/10/21 10:00:02;;;;;;;;;;;;;;;;;;5030930;28;20009;-66
2022/10/21 10:02:28;;;;;;;;;;;;;;;;;;5031085;28;19932;-65
2022/10/21 10:04:54;;;;;;;;;;;;;;;;;;5030611;28;19909;-66
2022/10/21 10:07:20;;;;;;;;;;;;;;;;;;5030983;28;19909;-66
2022/10/21 10:09:46;;;;;;;;;;;;;;;;;;5031129;28;19921;-65
2022/10/21 10:12:12;;;;;;;;;;;;;;;;;;5031103;28;19909;-64
2022/10/21 10:14:38;;;;;;;;;;;;;;;;;;5030752;28;20348;-65
2022/10/21 10:17:04;;;;;;;;;;;;;;;;;;5031086;28;19913;-65
2022/10/21 10:19:30;;;;;;;;;;;;;;;;;;5030257;28;19996;-63
2022/10/21 10:21:56;;;;;;;;;;;;;;;;;;5030888;28;19916;-66
2022/10/21 10:24:22;;;;;;;;;;;;;;;;;;5024010;28;19909;-66
2022/10/21 10:26:47;;;;;;;;;;;;;;;;;;5031122;28;19959;-66
2022/10/21 10:29:13;;;;;;;;;;;;;;;;;;5030466;28;19936;-66
2022/10/21 10:31:39;;;;;;;;;;;;;;;;;;5030727;28;19928;-66
2022/10/21 10:34:06;;;;;;;;;;;;;;;;;;5030364;28;19916;-66
2022/10/21 10:36:31;;;;;;;;;;;;;;;;;;5030909;28;19917;-65
2022/10/21 10:38:57;;;;;;;;;;;;;;;;;;5030649;28;20005;-65
2022/10/21 10:41:23;;;;;;;;;;;;;;;;;;5030760;28;19909;-64
2022/10/21 10:43:49;;;;;;;;;;;;;;;;;;5034013;28;20255;-65
2022/10/21 10:46:15;;;;;;;;;;;;;;;;;;5034607;28;19921;-64
2022/10/21 10:48:41;;;;;;;;;;;;;;;;;;5033961;28;19921;-65
2022/10/21 10:51:07;;;;;;;;;;;;;;;;;;5034586;28;20011;-65
2022/10/21 10:53:33;;;;;;;;;;;;;;;;;;5028550;28;20274;-65
2022/10/21 10:55:59;;;;;;;;;;;;;;;;;;5034343;28;19909;-66
2022/10/21 10:58:24;;;;;;;;;;;;;;;;;;5034479;28;19916;-66
2022/10/21 11:00:50;;;;;;;;;;;;;;;;;;5034204;28;19913;-66
2022/10/21 11:03:16;;;;;;;;;;;;;;;;;;5033133;28;20337;-65
2022/10/21 11:05:42;;;;;;;;;;;;;;;;;;5027780;28;19956;-66
2022/10/21 11:08:08;;;;;;;;;;;;;;;;;;5031303;28;20377;-65
2022/10/21 11:10:34;;;;;;;;;;;;;;;;;;5032456;28;19925;-64
2022/10/21 11:13:00;;;;;;;;;;;;;;;;;;5032049;28;19937;-66
2022/10/21 11:15:26;;;;;;;;;;;;;;;;;;5033207;28;19917;-66
2022/10/21 11:17:51;;;;;;;;;;;;;;;;;;5032508;28;19905;-65
2022/10/21 11:20:17;;;;;;;;;;;;;;;;;;5032861;28;20004;-65
2022/10/21 11:22:43;;;;;;;;;;;;;;;;;;5032683;28;19910;-65
2022/10/21 11:25:09;;;;;;;;;;;;;;;;;;5032295;28;20303;-65
2022/10/21 11:27:35;;;;;;;;;;;;;;;;;;5032139;28;19915;-63
2022/10/21 11:30:01;;;;;;;;;;;;;;;;;;5032210;28;20337;-64
2022/10/21 11:32:27;;;;;;;;;;;;;;;;;;5031160;28;20182;-63
2022/10/21 11:34:53;;;;;;;;;;;;;;;;;;5032500;28;20281;-65
2022/10/21 11:37:19;;;;;;;;;;;;;;;;;;5032081;28;19924;-66
2022/10/21 11:39:45;;;;;;;;;;;;;;;;;;5032352;28;19960;-65
2022/10/21 11:42:10;;;;;;;;;;;;;;;;;;5025418;28;19909;-67
2022/10/21 11:44:36;;;;;;;;;;;;;;;;;;5031768;28;19913;-64
2022/10/21 11:47:02;;;;;;;;;;;;;;;;;;5031760;28;19909;-66
2022/10/21 11:49:28;;;;;;;;;;;;;;;;;;5031556;28;19952;-66
2022/10/21 11:51:54;;;;;;;;;;;;;;;;;;5031892;28;19920;-66
2022/10/21 11:54:20;;;;;;;;;;;;;;;;;;5031312;28;19941;-65
2022/10/21 11:56:46;;;;;;;;;;;;;;;;;;5031447;28;19914;-65
2022/10/21 11:59:12;;;;;;;;;;;;;;;;;;5031433;28;20500;-66
2022/10/21 12:01:38;;;;;;;;;;;;;;;;;;5026068;28;19913;-63
2022/10/21 12:04:03;;;;;;;;;;;;;;;;;;5031052;28;20328;-66
2022/10/21 12:06:29;;;;;;;;;;;;;;;;;;5031187;28;19909;-65
2022/10/21 12:08:55;;;;;;;;;;;;;;;;;;5030657;28;19917;-65
2022/10/21 12:11:21;;;;;;;;;;;;;;;;;;5031274;28;19941;-64
2022/10/21 12:13:47;;;;;;;;;;;;;;;;;;5031181;28;19967;-66
2022/10/21 12:16:13;;;;;;;;;;;;;;;;;;5031060;28;19916;-65
2022/10/21 12:18:39;;;;;;;;;;;;;;;;;;5030674;28;20317;-64
2022/10/21 12:21:05;;;;;;;;;;;;;;;;;;5031089;28;19948;-65
2022/10/21 12:23:31;;;;;;;;;;;;;;;;;;5031313;28;20413;-65
2022/10/21 12:25:57;;;;;;;;;;;;;;;;;;5030880;28;19952;-64
2022/10/21 12:28:24;;;;;;;;;;;;;;;;;;5029735;28;20378;-67
2022/10/21 12:30:52;;;;;;;;;;;;;;;;;;5030819;28;19925;-65
2022/10/21 12:33:18;;;;;;;;;;;;;;;;;;5029994;28;19925;-67
2022/10/21 12:35:43;;;;;;;;;;;;;;;;;;5030306;28;19991;-63
2022/10/21 12:38:09;;;;;;;;;;;;;;;;;;5031445;28;19943;-64
2022/10/21 12:40:36;;;;;;;;;;;;;;;;;;5030837;28;20038;-65
2022/10/21 12:43:02;;;;;;;;;;;;;;;;;;5031190;28;19909;-66
2022/10/21 12:45:28;;;;;;;;;;;;;;;;;;5031081;28;19917;-66
2022/10/21 12:47:54;;;;;;;;;;;;;;;;;;5030611;28;20394;-66
2022/10/21 12:50:19;;;;;;;;;;;;;;;;;;5031412;28;20394;-66
2022/10/21 12:52:45;;;;;;;;;;;;;;;;;;5031212;28;20472;-65
2022/10/21 12:55:11;;;;;;;;;;;;;;;;;;5030915;28;19913;-66
2022/10/21 12:57:37;;;;;;;;;;;;;;;;;;5030674;28;20337;-64
2022/10/21 13:00:03;;;;;;;;;;;;;;;;;;5028566;28;19994;-65
2022/10/21 13:02:29;;;;;;;;;;;;;;;;;;5031294;28;19909;-66
2022/10/21 13:04:55;;;;;;;;;;;;;;;;;;5030388;28;19914;-66
2022/10/21 13:07:21;;;;;;;;;;;;;;;;;;5028823;28;19917;-65
2022/10/21 13:09:47;;;;;;;;;;;;;;;;;;5030882;28;19931;-65
2022/10/21 13:12:13;;;;;;;;;;;;;;;;;;5029963;28;19959;-63
2022/10/21 13:14:39;;;;;;;;;;;;;;;;;;5030494;28;19948;-64
2022/10/21 13:17:05;;;;;;;;;;;;;;;;;;5028987;28;19920;-65
2022/10/21 13:19:31;;;;;;;;;;;;;;;;;;5031276;28;19921;-63
2022/10/21 13:21:57;;;;;;;;;;;;;;;;;;5030758;28;20289;-65
2022/10/21 13:24:23;;;;;;;;;;;;;;;;;;5031010;28;19909;-63
2022/10/21 13:26:49;;;;;;;;;;;;;;;;;;5030321;28;20008;-65
2022/10/21 13:29:15;;;;;;;;;;;;;;;;;;5030389;28;20016;-65
2022/10/21 13:31:41;;;;;;;;;;;;;;;;;;5030998;28;20362;-64
2022/10/21 13:34:06;;;;;;;;;;;;;;;;;;5030683;28;19916;-65
2022/10/21 13:36:34;;;;;;;;;;;;;;;;;;5030396;28;20370;-66
2022/10/21 13:39:00;;;;;;;;;;;;;;;;;;5030301;28;19913;-65
2022/10/21 13:41:25;;;;;;;;;;;;;;;;;;5029777;28;19913;-65
2022/10/21 13:43:51;;;;;;;;;;;;;;;;;;5030489;28;19913;-64
2022/10/21 13:46:17;;;;;;;;;;;;;;;;;;5030500;28;20020;-63
2022/10/21 13:48:43;;;;;;;;;;;;;;;;;;5030190;28;20405;-64
2022/10/21 13:51:14;;;;;;;;;;;;;;;;;;5030506;28;19975;-65
2022/10/21 13:53:42;;;;;;;;;;;;;;;;;;5030219;28;19916;-65
2022/10/21 13:56:08;;;;;;;;;;;;;;;;;;5030637;28;19967;-65
2022/10/21 13:58:37;;;;;;;;;;;;;;;;;;5030224;28;19909;-65
2022/10/21 14:01:03;;;;;;;;;;;;;;;;;;5030003;28;19917;-63
2022/10/21 14:03:29;;;;;;;;;;;;;;;;;;5030128;28;19909;-66
2022/10/21 14:05:55;;;;;;;;;;;;;;;;;;5030575;28;19909;-63
2022/10/21 14:08:21;;;;;;;;;;;;;;;;;;5030399;28;19917;-65
2022/10/21 14:10:47;;;;;;;;;;;;;;;;;;5029227;28;20373;-66
2022/10/21 14:13:13;;;;;;;;;;;;;;;;;;5030320;28;19963;-64
2022/10/21 14:15:39;;;;;;;;;;;;;;;;;;5029989;28;19920;-66
2022/10/21 14:18:04;;;;;;;;;;;;;;;;;;5032462;28;19913;-64
2022/10/21 14:20:32;;;;;;;;;;;;;;;;;;5034351;28;19909;-66
2022/10/21 14:22:58;;;;;;;;;;;;;;;;;;5034224;28;19909;-63
2022/10/21 14:25:24;;;;;;;;;;;;;;;;;;5033782;28;20569;-65
2022/10/21 14:27:50;;;;;;;;;;;;;;;;;;5034083;28;19964;-62
2022/10/21 14:30:16;;;;;;;;;;;;;;;;;;5034072;28;19928;-65
2022/10/21 14:32:43;;;;;;;;;;;;;;;;;;5033964;28;19909;-64
2022/10/21 14:35:09;;;;;;;;;;;;;;;;;;5033940;28;20422;-65
2022/10/21 14:37:35;;;;;;;;;;;;;;;;;;5033566;28;19913;-65
2022/10/21 14:40:01;;;;;;;;;;;;;;;;;;5033096;28;20010;-66
2022/10/21 14:42:27;;;;;;;;;;;;;;;;;;5033496;28;20440;-65
2022/10/21 14:44:52;;;;;;;;;;;;;;;;;;5034441;28;19909;-65
2022/10/21 14:47:18;;;;;;;;;;;;;;;;;;5033209;28;20393;-63
2022/10/21 14:49:44;;;;;;;;;;;;;;;;;;5032498;28;19921;-64
2022/10/21 14:52:10;;;;;;;;;;;;;;;;;;5033334;28;20299;-66
2022/10/21 14:54:36;;;;;;;;;;;;;;;;;;5033518;28;19910;-65
2022/10/21 14:57:03;;;;;;;;;;;;;;;;;;5033482;28;20456;-65
2022/10/21 14:59:29;;;;;;;;;;;;;;;;;;5033145;28;19913;-65
2022/10/21 15:01:55;;;;;;;;;;;;;;;;;;5033334;28;19978;-65
2022/10/21 15:04:21;;;;;;;;;;;;;;;;;;5032457;28;20343;-63
2022/10/21 15:06:46;;;;;;;;;;;;;;;;;;5029330;28;19962;-66
2022/10/21 15:09:12;;;;;;;;;;;;;;;;;;5032537;28;19913;-66
2022/10/21 15:11:38;;;;;;;;;;;;;;;;;;5032226;28;19920;-63
2022/10/21 15:14:04;;;;;;;;;;;;;;;;;;5032491;28;19963;-64
2022/10/21 15:16:33;;;;;;;;;;;;;;;;;;5032762;28;19909;-66
2022/10/21 15:18:59;;;;;;;;;;;;;;;;;;5032906;28;19909;-64
2022/10/21 15:21:25;;;;;;;;;;;;;;;;;;5032436;28;19909;-65
2022/10/21 15:23:51;;;;;;;;;;;;;;;;;;5032152;28;20004;-65
2022/10/21 15:26:17;;;;;;;;;;;;;;;;;;5032509;28;19994;-64
2022/10/21 15:28:43;;;;;;;;;;;;;;;;;;5031561;28;20366;-62
2022/10/21 15:31:09;;;;;;;;;;;;;;;;;;5032309;28;19928;-62
2022/10/21 15:33:35;;;;;;;;;;;;;;;;;;5032355;28;20004;-64
2022/10/21 15:36:01;;;;;;;;;;;;;;;;;;5032308;28;20274;-64
2022/10/21 15:38:27;;;;;;;;;;;;;;;;;;5025668;28;19909;-65
2022/10/21 15:40:53;;;;;;;;;;;;;;;;;;5032014;28;19913;-66
2022/10/21 15:43:19;;;;;;;;;;;;;;;;;;5031562;28;19908;-66
2022/10/21 15:45:44;;;;;;;;;;;;;;;;;;5032483;28;19909;-66
2022/10/21 15:48:10;;;;;;;;;;;;;;;;;;5031564;28;20267;-64
2022/10/21 15:50:37;;;;;;;;;;;;;;;;;;5031684;28;19968;-64
2022/10/21 15:53:03;;;;;;;;;;;;;;;;;;5031464;28;19920;-63
2022/10/21 15:55:29;;;;;;;;;;;;;;;;;;5031713;28;19917;-65
2022/10/21 15:57:55;;;;;;;;;;;;;;;;;;5031314;28;19983;-65
2022/10/21 16:00:21;;;;;;;;;;;;;;;;;;5032352;28;19959;-63
2022/10/21 16:02:47;;;;;;;;;;;;;;;;;;5031671;28;19913;-65
2022/10/21 16:05:13;;;;;;;;;;;;;;;;;;5032487;28;19909;-64
2022/10/21 16:07:39;;;;;;;;;;;;;;;;;;5031671;28;19913;-64
2022/10/21 16:10:05;;;;;;;;;;;;;;;;;;5032277;28;20016;-64
2022/10/21 16:12:31;;;;;;;;;;;;;;;;;;5032325;28;19909;-65
2022/10/21 16:14:56;;;;;;;;;;;;;;;;;;5031403;28;19917;-63
2022/10/21 16:17:25;;;;;;;;;;;;;;;;;;5030555;28;19917;-64
2022/10/21 16:19:51;;;;;;;;;;;;;;;;;;5030262;28;19909;-65
2022/10/21 16:22:17;;;;;;;;;;;;;;;;;;5032084;28;19962;-63
2022/10/21 16:24:43;;;;;;;;;;;;;;;;;;5031046;28;19932;-62
2022/10/21 16:27:09;;;;;;;;;;;;;;;;;;5032161;28;19917;-62
2022/10/21 16:29:35;;;;;;;;;;;;;;;;;;5032196;28;19921;-64
2022/10/21 16:32:00;;;;;;;;;;;;;;;;;;5031318;28;19909;-63
2022/10/21 16:34:26;;;;;;;;;;;;;;;;;;5026750;28;19932;-65
2022/10/21 16:36:52;;;;;;;;;;;;;;;;;;5030228;28;20052;-64